Time;durP1;ratioP1;P1;durP2;ratioP2;P2;SDS_P1;SDS_P2;PMS_P1;PMS_P2;Temp;Humidity;BMP_temperature;BMP_pressure;BME280_temperature;BME280_humidity;BME280_pressure;Samples;Min_cycle;Max_cycle;Signal;HPM_P1;HPM_P2
2021/05/19 00:03:54;;;;;;;8.80;2.70;;;16.00;99.50;;;;;;12019269;28;20052;-77
2021/05/19 00:09:41;;;;;;;6.18;2.80;;;16.00;99.90;;;;;;12016702;28;20063;-77
2021/05/19 00:15:28;;;;;;;8.27;2.50;;;16.00;99.90;;;;;;12016434;28;20052;-77
2021/05/19 00:21:14;;;;;;;8.93;2.78;;;16.00;99.90;;;;;;12018613;28;20715;-77
2021/05/19 00:27:01;;;;;;;6.05;2.50;;;16.00;99.90;;;;;;12016264;28;20573;-78
2021/05/19 00:32:49;;;;;;;8.85;2.42;;;16.10;99.90;;;;;;12014387;28;20056;-78
2021/05/19 00:38:35;;;;;;;5.00;1.95;;;16.10;99.90;;;;;;12015668;28;20052;-78
2021/05/19 00:44:21;;;;;;;8.55;2.08;;;16.10;99.90;;;;;;12022677;28;20049;-77
2021/05/19 00:50:12;;;;;;;7.65;2.20;;;16.00;99.90;;;;;;12022946;28;20056;-77
2021/05/19 00:55:58;;;;;;;7.30;2.03;;;15.80;99.90;;;;;;12013903;28;20056;-77
2021/05/19 01:01:46;;;;;;;5.88;2.00;;;15.70;99.90;;;;;;12034352;28;20152;-77
2021/05/19 01:07:35;;;;;;;6.40;2.25;;;15.60;99.90;;;;;;12028154;28;20036;-77
2021/05/19 01:13:21;;;;;;;4.97;2.15;;;15.80;99.90;;;;;;12021041;28;20499;-78
2021/05/19 01:19:09;;;;;;;9.20;2.35;;;15.80;99.90;;;;;;12015541;28;20052;-78
2021/05/19 01:24:59;;;;;;;6.78;2.65;;;15.80;99.90;;;;;;12017005;28;20060;-78
2021/05/19 01:30:46;;;;;;;4.88;2.50;;;15.90;99.90;;;;;;12019949;28;20727;-77
2021/05/19 01:36:33;;;;;;;3.38;1.60;;;15.90;99.90;;;;;;12017292;28;20101;-78
2021/05/19 01:42:21;;;;;;;4.93;2.03;;;15.80;99.90;;;;;;12020779;28;20052;-78
2021/05/19 01:48:14;;;;;;;6.07;1.85;;;15.90;99.90;;;;;;12017033;28;20556;-77
2021/05/19 01:54:01;;;;;;;6.35;2.08;;;15.90;99.90;;;;;;12017206;28;20426;-77
2021/05/19 01:59:50;;;;;;;6.13;2.30;;;15.90;99.90;;;;;;12017089;28;20985;-77
2021/05/19 02:05:38;;;;;;;5.18;1.83;;;15.90;99.90;;;;;;12012391;28;20457;-78
2021/05/19 02:11:24;;;;;;;2.35;1.38;;;15.80;99.90;;;;;;12021920;28;20084;-77
2021/05/19 02:17:11;;;;;;;7.63;1.60;;;15.70;99.90;;;;;;12017345;28;20044;-78
2021/05/19 06:39:23;;;;;;;7.78;2.13;;;13.20;99.90;;;;;;12083710;27;21020;-75
2021/05/19 06:45:11;;;;;;;7.65;2.15;;;13.70;99.90;;;;;;12103819;27;20044;-75
2021/05/19 06:50:57;;;;;;;7.93;2.10;;;14.70;99.90;;;;;;12100167;27;20050;-78
2021/05/19 06:56:45;;;;;;;9.82;1.95;;;15.10;99.90;;;;;;12099633;28;20056;-79
2021/05/19 07:02:31;;;;;;;13.48;2.00;;;14.90;99.90;;;;;;12081398;28;20050;-77
2021/05/19 07:08:19;;;;;;;6.45;1.75;;;14.80;99.90;;;;;;12101173;27;20456;-82
2021/05/19 07:14:13;;;;;;;8.80;1.60;;;15.10;99.90;;;;;;12018977;27;20036;-79
2021/05/19 07:20:19;;;;;;;10.60;1.45;;;15.30;99.90;;;;;;12094479;27;20063;-87
2021/05/19 07:26:06;;;;;;;9.90;1.65;;;15.30;99.90;;;;;;12068841;27;20088;-83
2021/05/19 07:31:53;;;;;;;7.15;1.50;;;15.80;99.90;;;;;;12080428;28;20060;-85
2021/05/19 07:37:47;;;;;;;7.97;1.50;;;15.90;99.90;;;;;;11992226;28;20064;-83
2021/05/19 07:43:35;;;;;;;9.05;1.55;;;16.00;99.90;;;;;;12072169;28;20059;-86
2021/05/19 07:49:37;;;;;;;9.02;1.50;;;16.10;99.90;;;;;;12034017;28;20556;-82
2021/05/19 07:55:26;;;;;;;4.88;1.50;;;16.00;99.90;;;;;;12068934;27;20077;-82
2021/05/19 08:01:24;;;;;;;4.05;1.10;;;16.10;99.90;;;;;;12068709;27;20145;-86
2021/05/19 08:07:11;;;;;;;6.43;1.42;;;16.20;99.90;;;;;;12080297;22;20130;-81
2021/05/19 08:12:58;;;;;;;7.70;1.85;;;16.00;99.90;;;;;;11968864;28;20060;-83
2021/05/19 08:18:45;;;;;;;8.88;1.50;;;16.00;99.90;;;;;;12012762;28;20105;-83
2021/05/19 08:24:46;;;;;;;5.97;1.60;;;16.00;99.90;;;;;;12014561;28;20079;-82
2021/05/19 08:30:38;;;;;;;5.57;1.33;;;15.80;99.90;;;;;;12014262;28;20045;-82
2021/05/19 08:36:25;;;;;;;6.22;1.85;;;16.00;99.90;;;;;;12020428;28;20549;-80
2021/05/19 08:42:13;;;;;;;3.92;1.00;;;16.20;99.90;;;;;;12018269;28;20109;-85
2021/05/19 08:48:01;;;;;;;5.97;1.05;;;15.80;99.90;;;;;;12016241;28;20537;-84
2021/05/19 08:53:56;;;;;;;4.13;1.17;;;15.20;99.90;;;;;;11948140;28;20087;-84
2021/05/19 08:59:44;;;;;;;4.35;1.15;;;14.70;99.90;;;;;;11988447;28;20060;-85
2021/05/19 09:05:31;;;;;;;3.10;1.40;;;14.70;99.90;;;;;;11967704;28;20052;-83
2021/05/19 09:11:17;;;;;;;3.13;1.20;;;14.40;99.90;;;;;;11971329;28;24198;-81
2021/05/19 09:17:22;;;;;;;3.85;1.10;;;14.40;99.90;;;;;;11934074;28;20068;-81
2021/05/19 09:23:15;;;;;;;5.05;0.95;;;14.50;99.90;;;;;;11934866;28;20041;-81
2021/05/19 09:29:32;;;;;;;3.37;0.97;;;15.20;99.90;;;;;;11964829;28;20511;-78
2021/05/19 09:35:26;;;;;;;2.83;1.08;;;15.10;99.90;;;;;;11837199;28;20046;-78
2021/05/19 09:41:22;;;;;;;1.50;0.60;;;14.90;99.90;;;;;;11819423;28;20051;-83
2021/05/19 09:47:08;;;;;;;1.45;0.55;;;14.90;99.90;;;;;;11830402;28;20240;-81
2021/05/19 09:53:06;;;;;;;1.42;0.75;;;15.00;99.90;;;;;;11835930;28;20109;-80
2021/05/19 09:58:52;;;;;;;2.35;0.90;;;15.60;99.90;;;;;;11829514;28;20125;-81
2021/05/19 10:04:43;;;;;;;2.95;0.82;;;16.00;99.90;;;;;;11824469;28;20050;-80
2021/05/19 10:10:30;;;;;;;6.28;0.80;;;16.20;99.90;;;;;;11894217;28;20049;-80
2021/05/19 10:16:20;;;;;;;4.57;0.50;;;16.10;99.90;;;;;;11944412;28;20052;-79
2021/05/19 10:22:10;;;;;;;3.53;0.70;;;16.30;99.90;;;;;;11967985;28;20078;-80
2021/05/19 10:27:59;;;;;;;4.78;0.70;;;16.60;98.50;;;;;;11971386;28;20048;-79
2021/05/19 10:33:47;;;;;;;1.85;0.73;;;16.80;96.00;;;;;;11939729;28;20052;-80
2021/05/19 10:39:33;;;;;;;2.85;0.63;;;16.60;95.10;;;;;;11969095;28;20053;-78
2021/05/19 10:45:21;;;;;;;2.03;0.70;;;16.50;95.70;;;;;;11966233;28;20103;-79
2021/05/19 10:51:39;;;;;;;1.65;0.60;;;16.50;95.10;;;;;;11970064;28;20041;-80
2021/05/19 10:57:32;;;;;;;1.35;0.50;;;16.50;95.90;;;;;;11971636;28;20162;-81
2021/05/19 11:03:20;;;;;;;3.07;0.67;;;16.70;94.30;;;;;;11975357;28;20045;-81
2021/05/19 11:09:23;;;;;;;3.78;0.38;;;16.80;92.20;;;;;;11972633;28;20080;-80
2021/05/19 11:22:04;;;;;;;3.50;0.55;;;17.30;91.20;;;;;;11837126;28;20110;-81
2021/05/19 11:27:58;;;;;;;5.28;0.68;;;17.50;92.20;;;;;;11848043;28;20669;-81
2021/05/19 11:33:51;;;;;;;3.00;0.65;;;17.20;92.30;;;;;;11852230;28;20062;-82
2021/05/19 11:39:42;;;;;;;3.10;0.60;;;16.50;96.70;;;;;;11849463;28;20523;-81
2021/05/19 11:45:28;;;;;;;1.75;0.60;;;16.70;97.90;;;;;;11772741;28;20071;-81
2021/05/19 11:51:19;;;;;;;0.40;0.40;;;16.70;94.80;;;;;;11849225;28;20046;-82
2021/05/19 11:57:07;;;;;;;1.80;0.45;;;16.90;94.40;;;;;;11975568;28;20052;-81
2021/05/19 12:02:55;;;;;;;2.83;0.70;;;16.90;93.00;;;;;;11978217;28;20496;-81
2021/05/19 12:08:43;;;;;;;2.63;0.77;;;16.90;92.80;;;;;;11980663;28;20048;-79
2021/05/19 12:14:32;;;;;;;2.00;0.60;;;17.20;93.10;;;;;;11972301;28;20104;-83
2021/05/19 12:20:23;;;;;;;27.58;14.93;;;17.70;92.80;;;;;;11977528;28;20092;-78
2021/05/19 12:26:10;;;;;;;2.15;0.82;;;17.90;91.70;;;;;;11975125;28;20764;-81
2021/05/19 12:32:12;;;;;;;5.40;1.30;;;17.30;93.20;;;;;;11978093;28;20056;-80
2021/05/19 12:38:01;;;;;;;8.52;1.27;;;16.50;99.90;;;;;;11981371;28;20049;-78
2021/05/19 12:43:59;;;;;;;9.60;1.90;;;15.70;99.90;;;;;;11971378;28;20140;-80
2021/05/19 12:49:58;;;;;;;10.73;1.95;;;15.20;99.90;;;;;;11973814;28;20075;-80
2021/05/19 12:55:44;;;;;;;5.38;1.30;;;15.50;99.90;;;;;;11975691;28;21589;-81
2021/05/19 13:01:41;;;;;;;5.53;1.40;;;15.60;99.90;;;;;;11972197;28;20095;-78
2021/05/19 13:07:31;;;;;;;5.72;1.17;;;15.60;99.90;;;;;;11972546;28;20392;-80
2021/05/19 13:13:28;;;;;;;4.55;1.20;;;15.50;99.90;;;;;;11933287;28;20488;-80
2021/05/19 13:19:20;;;;;;;7.15;1.70;;;14.80;99.90;;;;;;11949291;28;20156;-80
2021/05/19 13:25:23;;;;;;;2.88;1.35;;;14.40;99.90;;;;;;11937034;28;20187;-83
2021/05/19 13:31:12;;;;;;;3.58;1.40;;;14.40;99.90;;;;;;11953120;28;20053;-84
2021/05/19 13:36:58;;;;;;;5.43;2.28;;;14.50;99.90;;;;;;11933100;28;20497;-79
2021/05/19 13:42:47;;;;;;;3.83;1.60;;;15.00;99.90;;;;;;11928080;28;20054;-80
2021/05/19 13:48:33;;;;;;;3.08;1.50;;;15.20;99.90;;;;;;11929633;28;20057;-84
2021/05/19 13:54:20;;;;;;;4.38;1.52;;;15.80;99.90;;;;;;11923817;28;20045;-81
2021/05/19 14:00:08;;;;;;;5.10;1.30;;;16.30;99.90;;;;;;11924522;28;20083;-82
2021/05/19 14:05:56;;;;;;;1.45;1.10;;;16.20;99.90;;;;;;11947249;28;20515;-82
2021/05/19 14:11:48;;;;;;;5.40;1.40;;;15.90;99.90;;;;;;11935199;28;20559;-83
2021/05/19 14:17:46;;;;;;;3.33;1.10;;;16.10;99.90;;;;;;11925543;28;20470;-77
2021/05/19 14:29:37;;;;;;;4.70;1.17;;;17.00;99.90;;;;;;11926133;28;20053;-77
2021/05/19 14:35:43;;;;;;;1.67;0.90;;;17.30;99.90;;;;;;11920446;28;20064;-77
2021/05/19 15:00:09;;;;;;;1.17;0.80;;;15.50;99.90;;;;;;11831167;28;20437;-80
2021/05/19 15:05:55;;;;;;;3.33;1.00;;;16.30;99.90;;;;;;11871689;28;20057;-81
2021/05/19 15:11:43;;;;;;;10.90;1.20;;;16.60;99.90;;;;;;11825950;28;20077;-85
2021/05/19 15:17:29;;;;;;;2.53;1.05;;;16.80;99.90;;;;;;11829922;28;20072;-83
2021/05/19 15:23:28;;;;;;;3.92;1.40;;;17.10;99.90;;;;;;11883870;28;20508;-83
2021/05/19 15:29:15;;;;;;;1.95;1.00;;;17.90;99.20;;;;;;11886528;28;20060;-83
2021/05/19 15:35:02;;;;;;;4.57;1.50;;;17.80;99.00;;;;;;11885887;28;20057;-85
2021/05/19 15:40:57;;;;;;;2.80;1.30;;;17.70;96.40;;;;;;11863011;28;20049;-83
2021/05/19 15:46:45;;;;;;;7.68;1.20;;;17.30;96.50;;;;;;11910614;28;20050;-89
2021/05/19 15:52:31;;;;;;;4.38;1.02;;;18.50;93.20;;;;;;11892536;28;20056;-81
2021/05/19 15:58:18;;;;;;;3.53;1.10;;;18.70;88.10;;;;;;11879595;28;20065;-84
2021/05/19 16:04:07;;;;;;;3.90;1.15;;;20.20;87.80;;;;;;11882818;28;20531;-83
2021/05/19 16:09:56;;;;;;;3.60;1.00;;;20.40;80.10;;;;;;11917372;28;20087;-80
2021/05/19 16:15:43;;;;;;;5.35;1.17;;;18.70;83.60;;;;;;11943389;28;20099;-82
2021/05/19 16:21:40;;;;;;;4.00;0.90;;;18.00;85.80;;;;;;11966253;28;20076;-82
2021/05/19 16:27:26;;;;;;;3.40;0.82;;;18.70;83.70;;;;;;11920559;28;20053;-83
2021/05/19 16:39:57;;;;;;;2.10;0.80;;;18.80;72.90;;;;;;11934521;28;20037;-81
2021/05/19 16:46:05;;;;;;;3.33;0.65;;;18.90;73.80;;;;;;11931451;28;20219;-82
2021/05/19 16:51:54;;;;;;;1.27;0.65;;;22.00;64.00;;;;;;11881945;28;20057;-84
2021/05/19 16:58:25;;;;;;;1.45;0.60;;;25.40;53.20;;;;;;11943618;28;20075;-85
2021/05/19 17:10:19;;;;;;;3.13;0.90;;;26.80;48.30;;;;;;11958529;23;20037;-83
2021/05/19 17:16:07;;;;;;;2.78;0.70;;;26.90;47.40;;;;;;11921186;28;20076;-84
2021/05/19 17:22:26;;;;;;;7.18;0.80;;;25.10;49.30;;;;;;11980621;28;20083;-84
2021/05/19 17:35:07;;;;;;;2.88;1.10;;;26.60;45.90;;;;;;11833909;28;20519;-84
2021/05/19 17:47:44;;;;;;;3.55;1.00;;;26.60;47.00;;;;;;11774070;28;20061;-85
2021/05/19 17:53:31;;;;;;;3.92;1.10;;;26.80;47.70;;;;;;11798226;28;20201;-84
2021/05/19 17:59:17;;;;;;;1.65;1.00;;;23.80;51.30;;;;;;11782270;28;20058;-80
2021/05/19 18:11:42;;;;;;;2.08;1.00;;;23.50;52.50;;;;;;11688001;28;20055;-82
2021/05/19 18:17:29;;;;;;;3.28;1.02;;;24.00;52.80;;;;;;11599999;29;20104;-81
2021/05/19 18:23:16;;;;;;;6.63;1.17;;;24.40;52.60;;;;;;11773389;28;33459;-81
2021/05/19 18:29:08;;;;;;;2.35;1.13;;;23.80;52.70;;;;;;11861904;28;20650;-82
2021/05/19 18:41:40;;;;;;;8.68;2.45;;;21.70;58.30;;;;;;11794847;28;20074;-81
2021/05/19 18:47:27;;;;;;;5.03;1.05;;;20.70;60.80;;;;;;11833415;28;20058;-82
2021/05/19 18:53:20;;;;;;;3.13;1.17;;;19.50;64.00;;;;;;11837004;28;20050;-82
2021/05/19 18:59:11;;;;;;;4.63;1.10;;;18.60;66.80;;;;;;11851753;28;20058;-82
2021/05/19 19:05:33;;;;;;;4.32;0.95;;;18.00;68.50;;;;;;11802317;28;20059;-82
2021/05/19 19:11:28;;;;;;;9.40;1.50;;;17.80;68.90;;;;;;11889212;23;20519;-81
2021/05/19 19:17:24;;;;;;;2.67;0.82;;;17.40;69.40;;;;;;11833427;28;20069;-83
2021/05/19 19:23:37;;;;;;;5.63;1.33;;;17.30;70.10;;;;;;11889859;28;20054;-83
2021/05/19 19:29:33;;;;;;;2.50;1.10;;;16.80;71.00;;;;;;11841808;28;20070;-83
2021/05/19 19:36:07;;;;;;;4.05;0.98;;;16.90;71.50;;;;;;11867837;28;20074;-83
2021/05/19 19:54:25;;;;;;;2.33;1.10;;;16.20;71.60;;;;;;11770757;28;20071;-81
2021/05/19 20:00:29;;;;;;;2.97;1.17;;;16.20;71.90;;;;;;11776231;28;20336;-81
2021/05/19 20:06:16;;;;;;;13.55;1.42;;;16.00;72.70;;;;;;11768009;28;20051;-81
2021/05/19 20:12:07;;;;;;;5.70;1.80;;;16.20;71.90;;;;;;11854611;28;20060;-81
2021/05/19 20:17:57;;;;;;;6.05;1.50;;;16.20;72.10;;;;;;11909675;28;20053;-82
2021/05/19 20:23:44;;;;;;;7.95;1.23;;;16.20;71.50;;;;;;11945604;28;20058;-82
2021/05/19 20:29:30;;;;;;;4.75;1.45;;;16.20;70.90;;;;;;11946432;28;20057;-82
2021/05/19 20:35:27;;;;;;;8.27;1.20;;;16.10;71.50;;;;;;11946631;28;20061;-83
2021/05/19 20:41:16;;;;;;;4.68;1.52;;;16.00;71.60;;;;;;11948136;28;20867;-82
2021/05/19 20:53:05;;;;;;;7.72;1.42;;;16.10;72.10;;;;;;11888933;28;20095;-83
2021/05/19 20:58:52;;;;;;;5.38;1.70;;;15.90;71.90;;;;;;11927881;28;20537;-78
2021/05/19 21:04:38;;;;;;;5.07;1.75;;;15.90;73.10;;;;;;11935917;28;20057;-85
2021/05/19 21:10:25;;;;;;;2.80;1.30;;;15.80;73.40;;;;;;11937509;28;20099;-78
2021/05/19 21:16:12;;;;;;;4.00;1.50;;;15.90;73.90;;;;;;11905909;28;20049;-79
2021/05/19 21:21:58;;;;;;;3.25;1.67;;;15.90;74.50;;;;;;11907146;28;20455;-79
2021/05/19 21:27:46;;;;;;;6.13;1.73;;;15.90;74.90;;;;;;11931917;28;20053;-79
2021/05/19 21:33:32;;;;;;;5.22;1.33;;;15.90;76.60;;;;;;11935153;28;20053;-78
2021/05/19 21:39:19;;;;;;;4.93;1.55;;;15.90;77.10;;;;;;11911319;28;20058;-77
2021/05/19 21:45:07;;;;;;;6.97;1.40;;;15.90;78.30;;;;;;11917636;28;20049;-77
2021/05/19 21:50:54;;;;;;;5.43;1.50;;;15.90;77.50;;;;;;11928885;28;20503;-77
2021/05/19 21:56:40;;;;;;;9.75;2.05;;;15.70;77.90;;;;;;11923861;28;20046;-76
2021/05/19 22:02:27;;;;;;;2.70;1.50;;;15.60;78.90;;;;;;11892670;28;20054;-76
2021/05/19 22:08:15;;;;;;;9.77;1.83;;;15.50;79.80;;;;;;11897341;28;20776;-78
2021/05/19 22:14:01;;;;;;;8.23;1.88;;;15.40;80.40;;;;;;11910169;28;20144;-78
2021/05/19 22:19:59;;;;;;;5.65;1.92;;;15.30;81.30;;;;;;11904604;28;20045;-78
2021/05/19 22:31:49;;;;;;;6.47;2.08;;;15.20;82.30;;;;;;11926247;28;20567;-78
2021/05/19 22:37:37;;;;;;;6.55;2.35;;;15.00;83.60;;;;;;11932722;28;20053;-81
2021/05/19 22:43:23;;;;;;;13.00;2.42;;;15.10;84.20;;;;;;11940008;28;20520;-83
2021/05/19 22:49:11;;;;;;;7.93;2.13;;;15.10;84.40;;;;;;11937293;28;20053;-79
2021/05/19 22:54:58;;;;;;;5.05;2.10;;;15.10;84.80;;;;;;11932323;28;20068;-80
2021/05/19 23:00:44;;;;;;;8.98;1.80;;;15.10;84.50;;;;;;11959795;28;20045;-81
2021/05/19 23:06:31;;;;;;;7.15;2.30;;;15.00;84.80;;;;;;11956048;28;20524;-80
2021/05/19 23:12:18;;;;;;;4.55;2.20;;;15.00;85.40;;;;;;11938567;28;20061;-81
2021/05/19 23:18:05;;;;;;;6.18;2.13;;;14.90;84.90;;;;;;11951941;28;20053;-81
2021/05/19 23:23:51;;;;;;;3.45;1.67;;;14.60;86.20;;;;;;11966342;28;20046;-80
2021/05/19 23:29:38;;;;;;;3.83;1.60;;;14.50;87.30;;;;;;11959655;28;20060;-81
2021/05/19 23:35:26;;;;;;;9.57;1.90;;;14.50;88.00;;;;;;11938502;28;20500;-81
2021/05/19 23:41:13;;;;;;;4.60;1.38;;;14.40;88.00;;;;;;11960174;28;20053;-81
2021/05/19 23:47:00;;;;;;;5.13;2.17;;;14.40;89.50;;;;;;11975166;28;20052;-81
2021/05/19 23:52:49;;;;;;;4.80;2.00;;;14.30;89.80;;;;;;11965996;28;20057;-78
2021/05/19 23:58:35;;;;;;;6.13;1.75;;;14.30;89.70;;;;;;11935961;28;20058;-78
